createdAt,value
2018-10-09T00:00:07.244Z,12.27
2018-10-09T00:02:35.509Z,12.23
2018-10-09T00:05:03.663Z,12.21
2018-10-09T00:07:31.866Z,12.19
2018-10-09T00:10:00.067Z,12.17
2018-10-09T00:12:28.222Z,12.14
2018-10-09T00:14:56.394Z,12.14
2018-10-09T00:17:24.634Z,12.16
2018-10-09T00:19:52.813Z,12.19
2018-10-09T00:22:21.074Z,12.19
2018-10-09T00:24:49.222Z,12.17
2018-10-09T00:27:17.382Z,12.16
2018-10-09T00:29:45.547Z,12.17
2018-10-09T00:32:13.723Z,12.18
2018-10-09T00:34:41.924Z,12.18
2018-10-09T00:37:10.106Z,12.19
2018-10-09T00:39:38.251Z,12.20
2018-10-09T00:42:06.410Z,12.20
2018-10-09T00:44:34.614Z,12.20
2018-10-09T00:47:02.829Z,12.22
2018-10-09T00:49:30.994Z,12.19
2018-10-09T00:51:59.136Z,12.18
2018-10-09T00:54:27.336Z,12.20
2018-10-09T00:56:55.627Z,12.19
2018-10-09T00:59:23.787Z,12.18
2018-10-09T01:01:51.969Z,12.16
2018-10-09T01:04:20.126Z,12.13
2018-10-09T01:06:48.307Z,12.10
2018-10-09T01:09:16.554Z,12.10
2018-10-09T01:11:44.686Z,12.12
2018-10-09T01:14:12.841Z,12.14
2018-10-09T01:16:40.999Z,12.17
2018-10-09T01:19:09.202Z,12.19
2018-10-09T01:21:37.393Z,12.18
2018-10-09T01:24:05.560Z,12.16
2018-10-09T01:26:33.702Z,12.15
2018-10-09T01:29:01.862Z,12.15
2018-10-09T01:31:30.087Z,12.14
2018-10-09T01:33:58.240Z,12.12
2018-10-09T01:36:26.423Z,12.11
2018-10-09T01:38:54.589Z,12.12
2018-10-09T01:41:22.733Z,12.14
2018-10-09T01:43:50.932Z,12.13
2018-10-09T01:46:19.124Z,12.13
2018-10-09T01:48:47.311Z,12.13
2018-10-09T01:51:15.496Z,12.12
2018-10-09T01:53:43.643Z,12.09
2018-10-09T01:56:11.791Z,12.08
2018-10-09T01:58:39.982Z,12.09
2018-10-09T02:01:08.146Z,12.09
2018-10-09T02:03:36.353Z,12.09
2018-10-09T02:06:04.551Z,12.10
2018-10-09T02:08:32.727Z,12.10
2018-10-09T02:11:00.898Z,12.09
2018-10-09T02:13:29.048Z,12.09
2018-10-09T02:15:57.195Z,12.08
2018-10-09T02:18:25.394Z,12.08
2018-10-09T02:20:53.566Z,12.04
2018-10-09T02:23:21.716Z,12.02
2018-10-09T02:25:49.883Z,12.00
2018-10-09T02:28:18.108Z,11.99
2018-10-09T02:30:46.338Z,11.96
2018-10-09T02:33:14.561Z,11.95
2018-10-09T02:35:42.743Z,11.94
2018-10-09T02:38:10.883Z,11.92
2018-10-09T02:40:39.077Z,11.93
2018-10-09T02:43:07.226Z,11.92
2018-10-09T02:45:35.370Z,11.92
2018-10-09T02:48:03.518Z,11.92
2018-10-09T02:50:31.683Z,11.92
2018-10-09T02:52:59.875Z,11.90
2018-10-09T02:55:28.142Z,11.87
2018-10-09T02:57:56.353Z,11.86
2018-10-09T03:00:24.539Z,11.86
2018-10-09T03:02:52.690Z,11.84
2018-10-09T03:05:20.938Z,11.82
2018-10-09T03:07:49.089Z,11.80
2018-10-09T03:10:17.293Z,11.79
2018-10-09T03:12:45.396Z,11.79
2018-10-09T03:15:13.639Z,11.78
2018-10-09T03:17:41.914Z,11.75
2018-10-09T03:20:10.097Z,11.70
2018-10-09T03:22:38.268Z,11.66
2018-10-09T03:25:06.484Z,11.62
2018-10-09T03:27:41.248Z,11.58
2018-10-09T03:30:10.806Z,11.57
2018-10-09T03:32:38.986Z,11.54
2018-10-09T03:35:07.762Z,11.53
2018-10-09T03:37:35.970Z,11.47
2018-10-09T03:40:04.161Z,11.42
2018-10-09T03:42:32.410Z,11.39
2018-10-09T03:45:00.591Z,11.37
2018-10-09T03:47:28.824Z,11.38
2018-10-09T03:49:56.967Z,11.40
2018-10-09T03:52:25.114Z,11.40
2018-10-09T03:54:53.341Z,11.39
2018-10-09T03:57:21.521Z,11.37
2018-10-09T03:59:49.734Z,11.36
2018-10-09T04:02:17.895Z,11.36
2018-10-09T04:04:46.257Z,11.35
2018-10-09T04:07:14.434Z,11.37
2018-10-09T04:09:42.664Z,11.38
2018-10-09T04:12:10.827Z,11.39
2018-10-09T04:14:38.990Z,11.41
2018-10-09T04:17:07.163Z,11.41
2018-10-09T04:19:35.391Z,11.40
2018-10-09T04:22:03.498Z,11.39
2018-10-09T04:24:31.692Z,11.39
2018-10-09T04:26:59.891Z,11.35
2018-10-09T04:29:28.235Z,11.34
2018-10-09T04:31:56.406Z,11.31
2018-10-09T04:34:24.671Z,11.30
2018-10-09T04:36:52.926Z,11.27
2018-10-09T04:39:21.115Z,11.23
2018-10-09T04:41:49.418Z,11.21
2018-10-09T04:44:17.623Z,11.21
2018-10-09T04:46:45.829Z,11.22
2018-10-09T04:49:14.044Z,11.22
2018-10-09T04:51:42.238Z,11.24
2018-10-09T04:54:10.556Z,11.24
2018-10-09T04:56:38.714Z,11.26
2018-10-09T04:59:06.988Z,11.29
2018-10-09T05:01:35.193Z,11.30
2018-10-09T05:04:03.399Z,11.31
2018-10-09T05:06:31.554Z,11.32
2018-10-09T05:09:00.040Z,11.32
2018-10-09T05:11:28.191Z,11.32
2018-10-09T05:13:56.414Z,11.32
2018-10-09T05:16:24.566Z,11.32
2018-10-09T05:18:52.734Z,11.32
2018-10-09T05:21:20.953Z,11.32
2018-10-09T05:23:49.190Z,11.31
2018-10-09T05:26:17.387Z,11.30
2018-10-09T05:28:45.571Z,11.28
2018-10-09T05:31:13.838Z,11.30
2018-10-09T05:33:41.982Z,11.29
2018-10-09T05:36:10.194Z,11.28
2018-10-09T05:38:38.408Z,11.27
2018-10-09T05:41:06.802Z,11.25
2018-10-09T05:43:35.015Z,11.22
2018-10-09T05:46:03.183Z,11.21
2018-10-09T05:48:31.430Z,11.24
2018-10-09T05:50:59.599Z,11.24
2018-10-09T05:53:27.759Z,11.23
2018-10-09T05:55:55.931Z,11.21
2018-10-09T05:58:24.106Z,11.20
2018-10-09T06:00:52.339Z,11.20
2018-10-09T06:03:20.570Z,11.21
2018-10-09T06:05:48.795Z,11.21
2018-10-09T06:08:16.994Z,11.21
2018-10-09T06:10:45.273Z,11.20
2018-10-09T06:13:13.498Z,11.19
2018-10-09T06:15:41.766Z,11.17
2018-10-09T06:18:09.929Z,11.17
2018-10-09T06:20:38.190Z,11.19
2018-10-09T06:23:06.998Z,11.21
2018-10-09T06:25:35.245Z,11.24
2018-10-09T06:28:03.523Z,11.26
2018-10-09T06:30:31.641Z,11.27
2018-10-09T06:32:59.834Z,11.26
2018-10-09T06:35:28.058Z,11.26
2018-10-09T06:37:56.203Z,11.27
2018-10-09T06:40:24.361Z,11.31
2018-10-09T06:42:52.612Z,11.36
2018-10-09T06:45:20.696Z,11.39
2018-10-09T06:47:49.071Z,11.42
2018-10-09T06:50:17.167Z,11.45
2018-10-09T06:52:45.321Z,11.49
2018-10-09T06:55:13.528Z,11.53
2018-10-09T06:57:41.713Z,11.55
2018-10-09T07:00:09.955Z,11.56
2018-10-09T07:02:38.394Z,11.55
2018-10-09T07:05:06.628Z,11.59
2018-10-09T07:07:34.824Z,11.66
2018-10-09T07:10:03.111Z,11.73
2018-10-09T07:12:31.373Z,11.76
2018-10-09T07:14:59.592Z,11.80
2018-10-09T07:17:27.994Z,11.85
2018-10-09T07:19:56.167Z,11.90
2018-10-09T07:22:24.326Z,11.94
2018-10-09T07:24:52.587Z,12.00
2018-10-09T07:27:20.819Z,12.04
2018-10-09T07:29:49.007Z,12.09
2018-10-09T07:32:17.171Z,12.12
2018-10-09T07:34:45.363Z,12.17
2018-10-09T07:37:13.640Z,12.21
2018-10-09T07:39:41.782Z,12.25
2018-10-09T07:42:09.950Z,12.29
2018-10-09T07:44:38.304Z,12.34
2018-10-09T07:47:06.464Z,12.40
2018-10-09T07:49:34.694Z,12.45
2018-10-09T07:52:02.832Z,12.49
2018-10-09T07:54:30.991Z,12.55
2018-10-09T07:56:59.151Z,12.59
2018-10-09T07:59:28.023Z,12.67
2018-10-09T08:01:56.463Z,12.75
2018-10-09T08:04:24.710Z,12.82
2018-10-09T08:06:52.918Z,12.89
2018-10-09T08:09:21.070Z,12.96
2018-10-09T08:11:49.279Z,13.03
2018-10-09T08:14:17.479Z,13.07
2018-10-09T08:16:45.679Z,13.11
2018-10-09T08:19:13.851Z,13.15
2018-10-09T08:21:42.015Z,13.18
2018-10-09T08:24:10.187Z,13.20
2018-10-09T08:26:38.352Z,13.23
2018-10-09T08:29:06.556Z,13.25
2018-10-09T08:31:34.727Z,13.26
2018-10-09T08:34:02.890Z,13.29
2018-10-09T08:36:31.066Z,13.31
2018-10-09T08:38:59.288Z,13.32
2018-10-09T08:41:27.477Z,13.34
2018-10-09T08:43:55.661Z,13.37
2018-10-09T08:46:23.879Z,13.40
2018-10-09T08:48:52.106Z,13.46
2018-10-09T08:51:20.331Z,13.51
2018-10-09T08:53:48.520Z,13.56
2018-10-09T08:56:16.684Z,13.61
2018-10-09T08:58:44.859Z,13.66
2018-10-09T09:01:13.035Z,13.72
2018-10-09T09:03:41.352Z,13.78
2018-10-09T09:06:09.493Z,13.82
2018-10-09T09:08:37.664Z,13.86
2018-10-09T09:11:05.810Z,13.92
2018-10-09T09:13:34.008Z,13.96
2018-10-09T09:16:02.274Z,14.02
2018-10-09T09:18:30.455Z,14.06
2018-10-09T09:20:58.704Z,14.09
2018-10-09T09:23:26.822Z,14.15
2018-10-09T09:25:55.158Z,14.18
2018-10-09T09:28:23.327Z,14.25
2018-10-09T09:30:51.528Z,14.33
2018-10-09T09:33:19.852Z,14.44
2018-10-09T09:35:47.925Z,14.59
2018-10-09T09:38:16.122Z,14.77
2018-10-09T09:40:44.415Z,14.97
2018-10-09T09:43:12.679Z,15.14
2018-10-09T09:45:40.923Z,15.28
2018-10-09T09:48:09.099Z,15.42
2018-10-09T09:50:37.288Z,15.56
2018-10-09T09:53:05.608Z,15.69
2018-10-09T09:55:33.790Z,15.84
2018-10-09T09:58:02.068Z,15.98
2018-10-09T10:00:35.510Z,16.08
2018-10-09T10:03:03.760Z,16.17
2018-10-09T10:05:31.947Z,16.24
2018-10-09T10:08:00.171Z,16.34
2018-10-09T10:10:28.380Z,16.45
2018-10-09T10:12:56.712Z,16.58
2018-10-09T10:15:24.909Z,16.69
2018-10-09T10:17:53.105Z,16.82
2018-10-09T10:20:21.286Z,16.95
2018-10-09T10:22:49.519Z,17.06
2018-10-09T10:25:17.738Z,17.20
2018-10-09T10:27:45.971Z,17.31
2018-10-09T10:30:14.227Z,17.43
2018-10-09T10:32:42.426Z,17.56
2018-10-09T10:35:10.620Z,17.71
2018-10-09T10:37:38.807Z,17.82
2018-10-09T10:40:07.104Z,17.96
2018-10-09T10:42:35.246Z,18.09
2018-10-09T10:45:03.483Z,18.21
2018-10-09T10:47:31.663Z,18.32
2018-10-09T10:50:00.077Z,18.37
2018-10-09T10:52:28.256Z,18.40
2018-10-09T10:54:56.428Z,18.41
2018-10-09T10:57:24.609Z,18.46
2018-10-09T10:59:52.943Z,18.54
2018-10-09T11:02:21.162Z,18.59
2018-10-09T11:04:49.344Z,18.63
2018-10-09T11:07:17.523Z,18.61
2018-10-09T11:09:45.730Z,18.60
2018-10-09T11:12:13.943Z,18.62
2018-10-09T11:14:42.216Z,18.62
2018-10-09T11:17:10.395Z,18.64
2018-10-09T11:19:38.676Z,18.67
2018-10-09T11:22:06.909Z,18.65
2018-10-09T11:24:35.111Z,18.59
2018-10-09T11:27:03.531Z,18.56
2018-10-09T11:29:31.726Z,18.55
2018-10-09T11:31:59.920Z,18.51
2018-10-09T11:34:28.115Z,18.45
2018-10-09T11:36:56.288Z,18.37
2018-10-09T11:39:24.496Z,18.28
2018-10-09T11:41:52.705Z,18.23
2018-10-09T11:44:20.911Z,18.19
2018-10-09T11:46:49.123Z,18.23
2018-10-09T11:49:17.458Z,18.27
2018-10-09T11:51:46.266Z,18.31
2018-10-09T11:54:14.533Z,18.33
2018-10-09T11:56:42.711Z,18.35
2018-10-09T11:59:10.973Z,18.35
2018-10-09T12:01:39.151Z,18.33
2018-10-09T12:04:07.955Z,18.32
2018-10-09T12:06:36.167Z,18.28
2018-10-09T12:09:06.040Z,18.24
2018-10-09T12:11:34.279Z,18.17
2018-10-09T12:14:02.466Z,18.14
2018-10-09T12:16:30.677Z,18.12
2018-10-09T12:18:59.052Z,18.11
2018-10-09T12:21:27.306Z,18.11
2018-10-09T12:23:55.583Z,18.11
2018-10-09T12:26:23.789Z,18.13
2018-10-09T12:28:52.017Z,18.14
2018-10-09T12:31:20.199Z,18.20
2018-10-09T12:33:48.419Z,18.23
2018-10-09T12:36:16.763Z,18.32
2018-10-09T12:38:45.221Z,18.45
2018-10-09T12:41:13.361Z,18.57
2018-10-09T12:43:41.891Z,18.60
2018-10-09T12:46:10.065Z,18.63
2018-10-09T12:48:38.243Z,18.67
2018-10-09T12:51:06.561Z,18.70
2018-10-09T12:53:34.755Z,18.81
2018-10-09T12:56:02.960Z,18.97
2018-10-09T12:58:31.189Z,19.08
2018-10-09T13:00:59.523Z,19.13
2018-10-09T13:03:27.691Z,19.13
2018-10-09T13:05:56.165Z,19.10
2018-10-09T13:08:24.430Z,19.05
2018-10-09T13:10:52.911Z,18.98
2018-10-09T13:13:21.186Z,18.92
2018-10-09T13:15:49.488Z,18.87
2018-10-09T13:18:17.643Z,18.82
2018-10-09T13:20:45.845Z,18.78
2018-10-09T13:23:14.030Z,18.76
2018-10-09T13:25:42.277Z,18.72
2018-10-09T13:28:10.595Z,18.72
2018-10-09T13:30:38.786Z,18.75
2018-10-09T13:33:06.983Z,18.77
2018-10-09T13:35:35.575Z,18.83
2018-10-09T13:38:03.876Z,18.88
2018-10-09T13:40:32.067Z,18.88
2018-10-09T13:43:00.230Z,18.87
2018-10-09T13:45:28.414Z,18.86
2018-10-09T13:47:56.628Z,18.86
2018-10-09T13:50:25.012Z,18.88
2018-10-09T13:52:53.292Z,18.91
2018-10-09T13:55:21.541Z,18.93
2018-10-09T13:57:49.669Z,19.00
2018-10-09T14:00:18.161Z,19.04
2018-10-09T14:02:46.479Z,19.08
2018-10-09T14:05:14.752Z,19.16
2018-10-09T14:07:43.291Z,19.21
2018-10-09T14:10:12.531Z,19.27
2018-10-09T14:12:40.624Z,19.31
2018-10-09T14:15:08.942Z,19.36
2018-10-09T14:17:37.208Z,19.43
2018-10-09T14:20:05.606Z,19.49
2018-10-09T14:22:33.844Z,19.53
2018-10-09T14:25:01.974Z,19.54
2018-10-09T14:27:30.210Z,19.57
2018-10-09T14:30:05.499Z,19.57
2018-10-09T14:32:33.779Z,19.56
2018-10-09T14:35:02.129Z,19.57
2018-10-09T14:37:30.260Z,19.64
2018-10-09T14:39:58.476Z,19.68
2018-10-09T14:42:26.687Z,19.68
2018-10-09T14:44:54.915Z,19.66
2018-10-09T14:47:23.337Z,19.62
2018-10-09T14:49:51.822Z,19.57
2018-10-09T14:52:19.990Z,19.52
2018-10-09T14:54:48.266Z,19.46
2018-10-09T14:57:16.647Z,19.40
2018-10-09T14:59:44.936Z,19.37
2018-10-09T15:02:13.304Z,19.33
2018-10-09T15:04:41.726Z,19.30
2018-10-09T15:07:10.036Z,19.30
2018-10-09T15:09:38.294Z,19.28
2018-10-09T15:12:06.591Z,19.26
2018-10-09T15:14:34.767Z,19.24
2018-10-09T15:17:03.133Z,19.22
2018-10-09T15:19:34.123Z,19.19
2018-10-09T15:22:02.459Z,19.17
2018-10-09T15:24:31.534Z,19.15
2018-10-09T15:27:00.691Z,19.10
2018-10-09T15:29:28.865Z,19.06
2018-10-09T15:31:57.074Z,19.03
2018-10-09T15:34:25.280Z,18.98
2018-10-09T15:36:53.471Z,18.94
2018-10-09T15:39:21.658Z,18.89
2018-10-09T15:41:50.368Z,18.85
2018-10-09T15:44:18.447Z,18.80
2018-10-09T15:46:46.782Z,18.76
2018-10-09T15:49:14.971Z,18.71
2018-10-09T15:51:43.168Z,18.67
2018-10-09T15:54:11.395Z,18.61
2018-10-09T15:56:39.633Z,18.56
2018-10-09T15:59:07.844Z,18.52
2018-10-09T16:01:36.084Z,18.43
2018-10-09T16:04:04.288Z,18.41
2018-10-09T16:06:32.531Z,18.35
2018-10-09T16:09:01.178Z,18.28
2018-10-09T16:11:29.627Z,18.21
2018-10-09T16:13:57.811Z,18.15
2018-10-09T16:16:25.984Z,18.10
2018-10-09T16:18:54.160Z,18.05
2018-10-09T16:21:22.558Z,17.99
2018-10-09T16:23:50.731Z,17.95
2018-10-09T16:26:18.926Z,17.91
2018-10-09T16:28:47.139Z,17.85
2018-10-09T16:31:15.402Z,17.80
2018-10-09T16:33:43.663Z,17.76
2018-10-09T16:36:11.976Z,17.72
2018-10-09T16:38:40.220Z,17.68
2018-10-09T16:41:08.942Z,17.63
2018-10-09T16:43:37.344Z,17.59
2018-10-09T16:46:05.812Z,17.54
2018-10-09T16:48:34.026Z,17.50
2018-10-09T16:51:02.254Z,17.46
2018-10-09T16:53:30.443Z,17.42
2018-10-09T16:55:58.702Z,17.36
2018-10-09T16:58:26.948Z,17.32
2018-10-09T17:00:55.155Z,17.28
2018-10-09T17:03:24.413Z,17.24
2018-10-09T17:05:52.811Z,17.20
2018-10-09T17:08:21.015Z,17.18
2018-10-09T17:10:49.263Z,17.16
2018-10-09T17:13:17.509Z,17.14
2018-10-09T17:15:45.706Z,17.10
2018-10-09T17:18:13.934Z,17.05
2018-10-09T17:20:42.301Z,17.03
2018-10-09T17:23:10.511Z,17.00
2018-10-09T17:25:38.851Z,16.97
2018-10-09T17:28:07.194Z,16.95
2018-10-09T17:30:35.468Z,16.90
2018-10-09T17:33:03.748Z,16.85
2018-10-09T17:35:31.987Z,16.79
2018-10-09T17:38:00.264Z,16.76
2018-10-09T17:40:28.467Z,16.69
2018-10-09T17:42:56.807Z,16.65
2018-10-09T17:45:25.003Z,16.62
2018-10-09T17:47:53.142Z,16.58
2018-10-09T17:50:21.360Z,16.54
2018-10-09T17:52:49.522Z,16.48
2018-10-09T17:55:17.732Z,16.44
2018-10-09T17:57:46.000Z,16.40
2018-10-09T18:00:14.287Z,16.38
2018-10-09T18:02:42.521Z,16.37
2018-10-09T18:05:10.467Z,16.37
2018-10-09T18:07:38.688Z,16.38
2018-10-09T18:10:06.967Z,16.36
2018-10-09T18:12:35.264Z,16.33
2018-10-09T18:15:03.621Z,16.31
2018-10-09T18:17:31.971Z,16.28
2018-10-09T18:20:06.146Z,16.24
2018-10-09T18:22:34.583Z,16.19
2018-10-09T18:25:03.590Z,16.18
2018-10-09T18:27:31.807Z,16.17
2018-10-09T18:30:00.199Z,16.13
2018-10-09T18:32:28.554Z,16.12
2018-10-09T18:34:56.768Z,16.10
2018-10-09T18:37:25.231Z,16.09
2018-10-09T18:39:55.021Z,16.06
2018-10-09T18:42:23.326Z,16.06
2018-10-09T18:44:51.559Z,16.03
2018-10-09T18:47:25.451Z,16.02
2018-10-09T18:49:53.592Z,16.02
2018-10-09T18:52:21.801Z,16.02
2018-10-09T18:54:49.979Z,16.02
2018-10-09T18:57:18.167Z,16.02
2018-10-09T18:59:46.402Z,16.01
2018-10-09T19:02:14.702Z,15.99
2018-10-09T19:04:42.918Z,15.96
2018-10-09T19:07:11.086Z,15.94
2018-10-09T19:09:39.335Z,15.89
2018-10-09T19:12:07.951Z,15.86
2018-10-09T19:14:36.243Z,15.83
2018-10-09T19:17:04.877Z,15.82
2018-10-09T19:19:33.430Z,15.80
2018-10-09T19:22:01.640Z,15.79
2018-10-09T19:24:29.892Z,15.78
2018-10-09T19:26:58.420Z,15.76
2018-10-09T19:29:26.631Z,15.76
2018-10-09T19:31:55.693Z,15.76
2018-10-09T19:34:23.950Z,15.74
2018-10-09T19:36:52.530Z,15.74
2018-10-09T19:39:20.813Z,15.72
2018-10-09T19:41:48.969Z,15.71
2018-10-09T19:44:17.164Z,15.68
2018-10-09T19:46:45.510Z,15.63
2018-10-09T19:49:13.680Z,15.56
2018-10-09T19:51:41.897Z,15.49
2018-10-09T19:54:10.065Z,15.47
2018-10-09T19:56:38.396Z,15.44
2018-10-09T19:59:06.614Z,15.40
2018-10-09T20:01:36.030Z,15.37
2018-10-09T20:04:04.292Z,15.33
2018-10-09T20:06:32.683Z,15.30
2018-10-09T20:09:00.924Z,15.28
2018-10-09T20:11:29.094Z,15.26
2018-10-09T20:13:57.372Z,15.27
2018-10-09T20:16:25.538Z,15.27
2018-10-09T20:18:53.784Z,15.29
2018-10-09T20:21:22.853Z,15.31
2018-10-09T20:23:53.013Z,15.31
2018-10-09T20:26:21.184Z,15.33
2018-10-09T20:28:49.342Z,15.33
2018-10-09T20:31:17.611Z,15.32
2018-10-09T20:33:46.295Z,15.29
2018-10-09T20:36:14.660Z,15.27
2018-10-09T20:38:43.893Z,15.23
2018-10-09T20:41:12.099Z,15.17
2018-10-09T20:43:40.274Z,15.12
2018-10-09T20:46:08.488Z,15.10
2018-10-09T20:48:40.298Z,15.05
2018-10-09T20:51:12.860Z,15.03
2018-10-09T20:53:47.608Z,14.98
2018-10-09T20:56:15.937Z,14.97
2018-10-09T20:58:44.425Z,14.94
2018-10-09T21:01:12.772Z,14.89
2018-10-09T21:03:41.095Z,14.85
2018-10-09T21:06:09.394Z,14.84
2018-10-09T21:08:37.997Z,14.84
2018-10-09T21:11:06.661Z,14.85
2018-10-09T21:13:34.860Z,14.86
2018-10-09T21:16:03.027Z,14.87
2018-10-09T21:18:31.363Z,14.89
2018-10-09T21:20:59.632Z,14.89
2018-10-09T21:23:27.979Z,14.90
2018-10-09T21:25:56.262Z,14.89
2018-10-09T21:28:24.474Z,14.87
2018-10-09T21:30:52.792Z,14.86
2018-10-09T21:33:20.998Z,14.85
2018-10-09T21:35:51.554Z,14.83
2018-10-09T21:38:20.041Z,14.82
2018-10-09T21:40:48.279Z,14.80
2018-10-09T21:43:16.589Z,14.80
2018-10-09T21:45:44.754Z,14.78
2018-10-09T21:48:12.965Z,14.77
2018-10-09T21:50:41.155Z,14.77
2018-10-09T21:53:09.880Z,14.76
2018-10-09T21:55:38.091Z,14.77
2018-10-09T21:58:06.733Z,14.76
2018-10-09T22:00:40.294Z,14.75
2018-10-09T22:03:08.588Z,14.72
2018-10-09T22:05:37.045Z,14.71
2018-10-09T22:08:05.647Z,14.71
2018-10-09T22:10:33.890Z,14.70
2018-10-09T22:13:02.146Z,14.68
2018-10-09T22:15:30.322Z,14.66
2018-10-09T22:17:58.497Z,14.65
2018-10-09T22:20:26.811Z,14.63
2018-10-09T22:22:55.033Z,14.62
2018-10-09T22:25:23.212Z,14.60
2018-10-09T22:27:51.384Z,14.59
2018-10-09T22:30:19.591Z,14.59
2018-10-09T22:32:47.789Z,14.58
2018-10-09T22:35:15.991Z,14.55
2018-10-09T22:37:44.875Z,14.55
2018-10-09T22:40:13.035Z,14.52
2018-10-09T22:42:41.265Z,14.50
2018-10-09T22:45:09.427Z,14.48
2018-10-09T22:47:37.675Z,14.47
2018-10-09T22:50:05.818Z,14.44
2018-10-09T22:52:34.002Z,14.43
2018-10-09T22:55:02.199Z,14.40
2018-10-09T22:57:30.368Z,14.36
2018-10-09T22:59:58.520Z,14.34
2018-10-09T23:02:26.756Z,14.32
2018-10-09T23:04:54.914Z,14.32
2018-10-09T23:07:23.095Z,14.30
2018-10-09T23:09:51.286Z,14.29
2018-10-09T23:12:19.438Z,14.30
2018-10-09T23:14:47.735Z,14.29
2018-10-09T23:17:15.894Z,14.26
2018-10-09T23:19:44.084Z,14.21
2018-10-09T23:22:12.327Z,14.18
2018-10-09T23:24:40.475Z,14.16
2018-10-09T23:27:08.685Z,14.15
2018-10-09T23:29:36.920Z,14.13
2018-10-09T23:32:05.112Z,14.09
2018-10-09T23:34:33.409Z,14.07
2018-10-09T23:37:01.729Z,14.04
2018-10-09T23:39:29.965Z,14.01
2018-10-09T23:41:58.372Z,13.98
2018-10-09T23:44:26.648Z,13.97
2018-10-09T23:46:54.984Z,13.96
2018-10-09T23:49:23.269Z,13.93
2018-10-09T23:51:51.650Z,13.94
2018-10-09T23:54:19.973Z,13.97
2018-10-09T23:56:48.306Z,13.97
2018-10-09T23:59:16.632Z,13.97
